createdAt,value
2022-08-05T00:00:50.036Z,78.23
2022-08-05T00:01:48.491Z,78.61
2022-08-05T00:02:51.170Z,79.39
2022-08-05T00:03:46.417Z,79.49
2022-08-05T00:04:46.431Z,79.20
2022-08-05T00:06:04.680Z,78.91
2022-08-05T00:06:47.198Z,79.20
2022-08-05T00:07:59.938Z,78.58
2022-08-05T00:08:46.532Z,79.10
2022-08-05T00:09:46.557Z,79.39
2022-08-05T00:10:46.578Z,79.74
2022-08-05T00:11:49.134Z,79.74
2022-08-05T00:12:55.825Z,79.54
2022-08-05T00:13:46.651Z,79.54
2022-08-05T00:14:46.677Z,79.16
2022-08-05T00:15:57.858Z,79.16
2022-08-05T00:16:53.107Z,79.16
2022-08-05T00:17:46.750Z,79.06
2022-08-05T00:18:46.776Z,79.06
2022-08-05T00:19:57.430Z,79.16
2022-08-05T00:20:46.829Z,78.96
2022-08-05T00:21:46.849Z,79.06
2022-08-05T00:22:47.209Z,79.06
2022-08-05T00:23:53.517Z,79.06
2022-08-05T00:24:46.925Z,79.25
2022-08-05T00:25:46.948Z,79.12
2022-08-05T00:26:51.746Z,79.16
2022-08-05T00:27:47.006Z,79.31
2022-08-05T00:28:47.022Z,79.35
2022-08-05T00:29:47.049Z,80.38
2022-08-05T00:30:47.073Z,80.28
2022-08-05T00:32:11.134Z,80.38
2022-08-05T00:32:47.122Z,80.38
2022-08-05T00:34:53.412Z,79.89
2022-08-05T00:35:04.623Z,79.80
2022-08-05T00:36:15.156Z,80.38
2022-08-05T00:37:10.960Z,81.53
2022-08-05T00:37:53.117Z,82.50
2022-08-05T00:38:47.268Z,82.50
2022-08-05T00:39:58.089Z,81.82
2022-08-05T00:40:52.011Z,82.40
2022-08-05T00:41:55.036Z,82.21
2022-08-05T00:42:49.188Z,82.02
2022-08-05T00:43:49.781Z,81.73
2022-08-05T00:44:47.414Z,81.98
2022-08-05T00:45:47.440Z,81.68
2022-08-05T00:46:47.466Z,81.78
2022-08-05T00:47:57.001Z,82.56
2022-08-05T00:48:50.445Z,83.14
2022-08-05T00:49:51.540Z,82.94
2022-08-05T00:50:47.561Z,82.36
2022-08-05T00:51:51.031Z,83.04
2022-08-05T00:52:47.610Z,83.33
2022-08-05T00:54:02.620Z,83.04
2022-08-05T00:54:47.661Z,83.52
2022-08-05T00:55:47.682Z,83.42
2022-08-05T00:56:51.413Z,84.30
2022-08-05T00:57:58.781Z,83.23
2022-08-05T00:58:47.757Z,83.42
2022-08-05T00:59:47.780Z,83.33
2022-08-05T01:00:47.879Z,83.72
2022-08-05T01:01:48.846Z,83.62
2022-08-05T01:02:47.853Z,84.48
2022-08-05T01:03:49.978Z,83.42
2022-08-05T01:04:50.313Z,84.30
2022-08-05T01:05:47.924Z,84.88
2022-08-05T01:06:48.820Z,85.22
2022-08-05T01:08:30.677Z,85.84
2022-08-05T01:08:47.998Z,86.03
2022-08-05T01:09:55.504Z,85.31
2022-08-05T01:10:52.454Z,85.06
2022-08-05T01:11:48.069Z,85.89
2022-08-05T01:12:54.358Z,85.89
2022-08-05T01:13:58.951Z,86.03
2022-08-05T01:14:48.143Z,86.86
2022-08-05T01:15:48.171Z,87.05
2022-08-05T01:16:48.190Z,87.24
2022-08-05T01:17:53.836Z,88.50
2022-08-05T01:18:48.263Z,87.73
2022-08-05T01:20:00.740Z,87.82
2022-08-05T01:20:48.286Z,87.73
2022-08-05T01:21:50.561Z,87.73
2022-08-05T01:22:48.339Z,88.02
2022-08-05T01:23:53.034Z,88.50
2022-08-05T01:24:48.387Z,88.69
2022-08-05T01:25:53.260Z,89.37
2022-08-05T01:26:48.437Z,89.17
2022-08-05T01:27:55.356Z,89.07
2022-08-05T01:28:48.479Z,89.37
2022-08-05T01:29:48.504Z,89.07
2022-08-05T01:30:53.815Z,90.14
2022-08-05T01:31:48.550Z,89.65
2022-08-05T01:32:48.586Z,89.95
2022-08-05T01:33:48.976Z,90.05
2022-08-05T01:34:48.623Z,89.95
2022-08-05T01:35:51.318Z,90.43
2022-08-05T01:36:48.671Z,90.43
2022-08-05T01:37:48.695Z,90.53
2022-08-05T01:38:49.898Z,90.33
2022-08-05T01:39:48.775Z,91.01
2022-08-05T01:40:48.767Z,90.53
2022-08-05T01:41:48.789Z,90.72
2022-08-05T01:42:48.823Z,91.20
2022-08-05T01:43:48.879Z,91.59
2022-08-05T01:44:54.240Z,92.12
2022-08-05T01:45:56.801Z,92.07
2022-08-05T01:46:48.918Z,91.74
2022-08-05T01:47:48.932Z,92.02
2022-08-05T01:48:49.831Z,92.50
2022-08-05T01:50:01.552Z,92.22
2022-08-05T01:50:51.051Z,92.60
2022-08-05T01:51:50.985Z,92.80
2022-08-05T01:52:49.664Z,92.65
2022-08-05T01:53:57.036Z,92.70
2022-08-05T01:54:49.099Z,93.37
2022-08-05T01:55:49.128Z,92.80
2022-08-05T01:58:11.438Z,93.85
2022-08-05T01:58:18.881Z,94.15
2022-08-05T01:58:49.375Z,93.18
2022-08-05T01:59:49.218Z,93.28
2022-08-05T02:00:49.241Z,93.37
2022-08-05T02:01:49.334Z,92.89
2022-08-05T02:02:53.685Z,93.85
2022-08-05T02:03:49.313Z,93.76
2022-08-05T02:04:49.683Z,94.34
2022-08-05T02:05:49.359Z,94.73
2022-08-05T02:06:49.385Z,94.53
2022-08-05T02:07:59.997Z,94.43
2022-08-05T02:08:58.193Z,94.34
2022-08-05T02:09:49.454Z,95.45
2022-08-05T02:10:49.478Z,95.31
2022-08-05T02:11:52.470Z,94.92
2022-08-05T02:12:50.904Z,94.82
2022-08-05T02:13:53.639Z,95.21
2022-08-05T02:14:49.579Z,95.16
2022-08-05T02:15:49.598Z,95.45
2022-08-05T02:16:52.479Z,95.83
2022-08-05T02:18:31.053Z,95.74
2022-08-05T02:18:49.668Z,95.64
2022-08-05T02:19:49.692Z,95.54
2022-08-05T02:20:49.715Z,95.64
2022-08-05T02:21:49.740Z,95.35
2022-08-05T02:22:49.771Z,95.25
2022-08-05T02:23:49.789Z,95.16
2022-08-05T02:24:51.344Z,95.35
2022-08-05T02:25:50.571Z,95.45
2022-08-05T02:26:53.716Z,95.74
2022-08-05T02:27:59.304Z,95.45
2022-08-05T02:28:49.907Z,95.25
2022-08-05T02:29:58.402Z,95.25
2022-08-05T02:30:54.225Z,95.25
2022-08-05T02:31:49.976Z,95.35
2022-08-05T02:32:50.003Z,95.45
2022-08-05T02:33:50.027Z,95.54
2022-08-05T02:34:54.531Z,95.06
2022-08-05T02:35:58.885Z,95.25
2022-08-05T02:36:50.093Z,95.35
2022-08-05T02:37:53.957Z,95.54
2022-08-05T02:38:52.876Z,95.25
2022-08-05T02:39:51.677Z,95.35
2022-08-05T02:40:50.190Z,95.25
2022-08-05T02:42:00.592Z,95.45
2022-08-05T02:42:53.027Z,95.06
2022-08-05T02:44:06.429Z,95.06
2022-08-05T02:44:50.288Z,95.06
2022-08-05T02:45:52.165Z,95.06
2022-08-05T02:46:58.836Z,95.25
2022-08-05T02:48:06.688Z,95.06
2022-08-05T02:48:50.380Z,94.87
2022-08-05T02:49:50.404Z,95.35
2022-08-05T02:50:50.430Z,95.35
2022-08-05T02:52:03.094Z,95.45
2022-08-05T02:52:50.474Z,95.25
2022-08-05T02:53:50.498Z,95.16
2022-08-05T02:54:50.791Z,95.35
2022-08-05T02:55:54.093Z,94.77
2022-08-05T02:56:50.570Z,94.87
2022-08-05T02:58:10.886Z,94.77
2022-08-05T02:58:51.166Z,94.87
2022-08-05T02:59:51.959Z,95.35
2022-08-05T03:00:50.664Z,95.06
2022-08-05T03:01:50.772Z,94.68
2022-08-05T03:02:50.713Z,94.96
2022-08-05T03:04:08.892Z,94.96
2022-08-05T03:04:53.272Z,94.87
2022-08-05T03:06:54.363Z,95.16
2022-08-05T03:06:54.923Z,95.25
2022-08-05T03:08:06.706Z,94.68
2022-08-05T03:08:52.310Z,95.45
2022-08-05T03:09:51.953Z,95.25
2022-08-05T03:11:53.575Z,95.16
2022-08-05T03:11:54.545Z,95.54
2022-08-05T03:12:51.819Z,94.77
2022-08-05T03:14:03.383Z,95.35
2022-08-05T03:14:51.000Z,94.77
2022-08-05T03:15:51.020Z,95.06
2022-08-05T03:16:53.301Z,95.25
2022-08-05T03:17:54.216Z,95.54
2022-08-05T03:18:51.093Z,95.16
2022-08-05T03:19:51.119Z,95.06
2022-08-05T03:20:51.139Z,95.16
2022-08-05T03:21:51.167Z,95.45
2022-08-05T03:22:51.189Z,95.35
2022-08-05T03:23:51.212Z,94.87
2022-08-05T03:24:52.255Z,94.77
2022-08-05T03:26:04.922Z,94.96
2022-08-05T03:26:51.285Z,95.25
2022-08-05T03:27:59.370Z,95.45
2022-08-05T03:28:51.333Z,95.35
2022-08-05T03:30:08.237Z,95.25
2022-08-05T03:30:51.379Z,95.25
2022-08-05T03:31:57.242Z,95.35
2022-08-05T03:32:51.426Z,95.25
2022-08-05T03:33:53.180Z,95.35
2022-08-05T03:34:51.666Z,94.96
2022-08-05T03:35:51.613Z,94.96
2022-08-05T03:36:51.524Z,95.74
2022-08-05T03:37:51.548Z,95.64
2022-08-05T03:38:52.557Z,95.74
2022-08-05T03:39:59.225Z,95.25
2022-08-05T03:40:51.669Z,95.54
2022-08-05T03:41:52.622Z,96.03
2022-08-05T03:42:52.670Z,95.64
2022-08-05T03:44:08.462Z,95.64
2022-08-05T03:44:51.713Z,95.50
2022-08-05T03:45:58.117Z,95.06
2022-08-05T03:46:51.759Z,95.25
2022-08-05T03:47:51.782Z,96.03
2022-08-05T03:48:51.815Z,95.83
2022-08-05T03:49:52.393Z,95.83
2022-08-05T03:50:51.857Z,95.64
2022-08-05T03:52:49.231Z,95.93
2022-08-05T03:55:34.229Z,95.06
2022-08-05T03:55:50.143Z,95.16
2022-08-05T03:55:53.361Z,95.25
2022-08-05T03:56:09.806Z,95.11
2022-08-05T03:56:51.998Z,95.16
2022-08-05T03:57:52.023Z,95.35
2022-08-05T03:58:52.045Z,95.06
2022-08-05T03:59:54.934Z,94.96
2022-08-05T04:00:52.582Z,95.25
2022-08-05T04:01:52.320Z,95.35
2022-08-05T04:02:58.911Z,95.16
2022-08-05T04:04:08.822Z,95.25
2022-08-05T04:04:52.190Z,95.16
2022-08-05T04:05:52.215Z,95.16
2022-08-05T04:06:52.238Z,95.54
2022-08-05T04:07:58.177Z,95.30
2022-08-05T04:08:52.284Z,95.35
2022-08-05T04:09:53.128Z,95.45
2022-08-05T04:10:52.333Z,94.87
2022-08-05T04:11:52.430Z,95.11
2022-08-05T04:12:52.381Z,95.16
2022-08-05T04:13:53.391Z,94.87
2022-08-05T04:14:52.430Z,95.25
2022-08-05T04:16:02.740Z,95.16
2022-08-05T04:16:52.477Z,95.30
2022-08-05T04:17:56.069Z,94.77
2022-08-05T04:18:54.322Z,94.82
2022-08-05T04:19:54.499Z,95.11
2022-08-05T04:20:52.572Z,95.11
2022-08-05T04:22:09.957Z,94.92
2022-08-05T04:22:52.625Z,94.92
2022-08-05T04:24:04.694Z,95.11
2022-08-05T04:24:53.149Z,94.43
2022-08-05T04:25:57.085Z,94.34
2022-08-05T04:26:52.718Z,94.72
2022-08-05T04:27:56.783Z,94.82
2022-08-05T04:28:52.767Z,94.82
2022-08-05T04:29:52.803Z,94.92
2022-08-05T04:30:52.815Z,94.53
2022-08-05T04:31:52.838Z,94.72
2022-08-05T04:32:52.865Z,94.62
2022-08-05T04:34:17.376Z,94.53
2022-08-05T04:34:52.909Z,94.62
2022-08-05T04:36:16.814Z,94.29
2022-08-05T04:36:52.958Z,94.48
2022-08-05T04:38:01.669Z,94.09
2022-08-05T04:38:53.007Z,94.29
2022-08-05T04:39:53.135Z,93.99
2022-08-05T04:40:53.057Z,93.99
2022-08-05T04:41:53.080Z,93.80
2022-08-05T04:42:53.106Z,93.90
2022-08-05T04:43:53.131Z,93.99
2022-08-05T04:44:53.154Z,94.24
2022-08-05T04:45:55.214Z,93.75
2022-08-05T04:46:53.204Z,93.75
2022-08-05T04:47:53.227Z,93.56
2022-08-05T04:48:53.251Z,93.56
2022-08-05T04:50:01.712Z,93.85
2022-08-05T04:51:01.836Z,93.08
2022-08-05T04:52:00.222Z,92.93
2022-08-05T04:52:53.348Z,93.32
2022-08-05T04:53:53.373Z,93.12
2022-08-05T04:54:53.403Z,92.64
2022-08-05T04:56:33.626Z,92.74
2022-08-05T04:56:57.431Z,92.93
2022-08-05T04:57:53.825Z,92.54
2022-08-05T04:58:53.500Z,92.54
2022-08-05T04:59:53.525Z,92.74
2022-08-05T05:00:53.581Z,92.93
2022-08-05T05:02:07.946Z,92.74
2022-08-05T05:02:53.635Z,92.93
2022-08-05T05:03:53.622Z,93.02
2022-08-05T05:05:02.210Z,92.40
2022-08-05T05:06:35.923Z,92.40
2022-08-05T05:06:57.689Z,92.30
2022-08-05T05:07:56.559Z,92.00
2022-08-05T05:08:53.750Z,91.91
2022-08-05T05:09:53.788Z,91.14
2022-08-05T05:10:56.506Z,90.84
2022-08-05T05:11:56.852Z,91.14
2022-08-05T05:12:53.844Z,91.14
2022-08-05T05:13:55.292Z,91.14
2022-08-05T05:14:53.894Z,91.42
2022-08-05T05:15:57.576Z,91.72
2022-08-05T05:16:54.482Z,91.96
2022-08-05T05:17:56.420Z,91.14
2022-08-05T05:19:17.742Z,90.89
2022-08-05T05:19:54.030Z,90.12
2022-08-05T05:20:54.046Z,90.60
2022-08-05T05:21:55.504Z,90.21
2022-08-05T05:22:54.098Z,90.41
2022-08-05T05:24:03.763Z,90.21
2022-08-05T05:24:57.634Z,89.92
2022-08-05T05:25:54.174Z,89.92
2022-08-05T05:26:54.197Z,89.73
2022-08-05T05:27:55.786Z,89.83
2022-08-05T05:28:54.247Z,89.87
2022-08-05T05:30:04.877Z,89.68
2022-08-05T05:30:54.299Z,89.77
2022-08-05T05:31:54.323Z,89.58
2022-08-05T05:32:54.349Z,89.58
2022-08-05T05:33:59.157Z,89.58
2022-08-05T05:34:54.402Z,89.39
2022-08-05T05:35:54.426Z,89.48
2022-08-05T05:36:54.451Z,89.29
2022-08-05T05:37:59.413Z,89.19
2022-08-05T05:38:54.538Z,88.90
2022-08-05T05:39:54.605Z,88.81
2022-08-05T05:40:54.555Z,89.00
2022-08-05T05:41:54.707Z,88.81
2022-08-05T05:42:54.606Z,88.81
2022-08-05T05:43:58.186Z,89.00
2022-08-05T05:44:54.655Z,89.00
2022-08-05T05:45:54.682Z,88.71
2022-08-05T05:46:54.710Z,88.71
2022-08-05T05:48:06.350Z,88.71
2022-08-05T05:48:54.759Z,88.75
2022-08-05T05:49:56.956Z,88.95
2022-08-05T05:50:54.809Z,89.48
2022-08-05T05:51:54.898Z,89.53
2022-08-05T05:52:54.860Z,89.53
2022-08-05T05:53:58.918Z,89.33
2022-08-05T05:54:54.913Z,89.48
2022-08-05T05:56:00.771Z,89.23
2022-08-05T05:56:54.962Z,89.48
2022-08-05T05:57:54.989Z,89.77
2022-08-05T05:58:55.013Z,89.87
2022-08-05T05:59:55.038Z,89.87
2022-08-05T06:00:55.064Z,90.36
2022-08-05T06:01:57.308Z,89.77
2022-08-05T06:02:55.115Z,90.45
2022-08-05T06:04:02.114Z,90.64
2022-08-05T06:04:55.197Z,90.26
2022-08-05T06:05:55.658Z,90.45
2022-08-05T06:06:55.215Z,90.26
2022-08-05T06:08:01.272Z,90.55
2022-08-05T06:08:55.267Z,90.45
2022-08-05T06:10:00.933Z,90.26
2022-08-05T06:10:55.319Z,90.64
2022-08-05T06:11:59.216Z,91.13
2022-08-05T06:12:55.368Z,91.52
2022-08-05T06:13:55.584Z,91.13
2022-08-05T06:14:55.421Z,91.81
2022-08-05T06:16:28.977Z,91.71
2022-08-05T06:16:55.475Z,92.19
2022-08-05T06:17:55.499Z,92.10
2022-08-05T06:18:55.524Z,92.58
2022-08-05T06:19:57.140Z,92.19
2022-08-05T06:20:55.569Z,92.49
2022-08-05T06:21:55.601Z,92.49
2022-08-05T06:22:55.630Z,92.87
2022-08-05T06:23:55.648Z,92.39
2022-08-05T06:24:55.690Z,92.49
2022-08-05T06:26:12.584Z,93.16
2022-08-05T06:26:55.725Z,92.77
2022-08-05T06:28:11.370Z,93.07
2022-08-05T06:28:55.776Z,93.31
2022-08-05T06:30:04.483Z,93.51
2022-08-05T06:30:55.826Z,93.79
2022-08-05T06:31:55.850Z,93.89
2022-08-05T06:32:55.879Z,93.89
2022-08-05T06:34:07.590Z,94.47
2022-08-05T06:34:56.544Z,94.18
2022-08-05T06:36:09.338Z,94.28
2022-08-05T06:36:57.934Z,94.18
2022-08-05T06:37:59.025Z,94.09
2022-08-05T06:38:56.056Z,94.23
2022-08-05T06:39:56.053Z,94.42
2022-08-05T06:40:56.080Z,94.42
2022-08-05T06:41:56.105Z,93.65
2022-08-05T06:42:56.132Z,93.94
2022-08-05T06:44:00.303Z,93.50
2022-08-05T06:44:56.184Z,93.11
2022-08-05T06:46:06.855Z,92.92
2022-08-05T06:46:56.254Z,92.72
2022-08-05T06:48:47.060Z,92.24
2022-08-05T06:48:59.285Z,92.14
2022-08-05T06:50:00.481Z,91.85
2022-08-05T06:50:56.337Z,91.80
2022-08-05T06:51:56.364Z,91.71
2022-08-05T06:53:03.617Z,91.80
2022-08-05T06:53:56.419Z,92.19
2022-08-05T06:54:56.445Z,91.31
2022-08-05T06:55:56.471Z,91.41
2022-08-05T06:57:57.130Z,91.31
2022-08-05T06:58:02.784Z,91.31
2022-08-05T06:58:56.553Z,91.02
2022-08-05T06:59:58.346Z,91.12
2022-08-05T07:00:56.630Z,90.68
2022-08-05T07:01:56.625Z,90.78
2022-08-05T07:02:56.654Z,91.07
2022-08-05T07:03:56.678Z,90.20
2022-08-05T07:04:56.706Z,89.90
2022-08-05T07:05:57.075Z,89.76
2022-08-05T07:06:56.763Z,89.52
2022-08-05T07:07:56.786Z,89.17
2022-08-05T07:08:59.077Z,89.17
2022-08-05T07:09:58.456Z,88.88
2022-08-05T07:10:56.866Z,88.49
2022-08-05T07:11:56.894Z,88.49
2022-08-05T07:12:56.925Z,87.82
2022-08-05T07:13:59.815Z,87.62
2022-08-05T07:14:56.977Z,88.05
2022-08-05T07:16:01.123Z,87.66
2022-08-05T07:18:01.085Z,87.86
2022-08-05T07:18:07.419Z,87.37
2022-08-05T07:18:57.085Z,87.66
2022-08-05T07:20:57.136Z,87.37
2022-08-05T07:22:00.000Z,87.47
2022-08-05T07:22:57.191Z,87.37
2022-08-05T07:23:57.222Z,87.37
2022-08-05T07:24:57.245Z,87.27
2022-08-05T07:25:57.275Z,87.08
2022-08-05T07:26:57.300Z,87.08
2022-08-05T07:28:02.288Z,86.79
2022-08-05T07:28:57.355Z,87.47
2022-08-05T07:30:27.109Z,87.37
2022-08-05T07:30:57.410Z,86.99
2022-08-05T07:31:57.442Z,87.37
2022-08-05T07:32:57.551Z,87.37
2022-08-05T07:33:57.489Z,87.62
2022-08-05T07:34:57.873Z,87.86
2022-08-05T07:36:19.498Z,88.10
2022-08-05T07:36:57.568Z,88.20
2022-08-05T07:37:57.593Z,87.91
2022-08-05T07:38:57.626Z,88.49
2022-08-05T07:40:25.890Z,88.69
2022-08-05T07:41:00.339Z,88.65
2022-08-05T07:42:13.130Z,88.65
2022-08-05T07:42:57.729Z,89.13
2022-08-05T07:43:57.757Z,89.42
2022-08-05T07:44:57.780Z,89.61
2022-08-05T07:45:58.528Z,89.90
2022-08-05T07:46:57.832Z,89.81
2022-08-05T07:47:57.908Z,89.96
2022-08-05T07:49:02.810Z,90.64
2022-08-05T07:49:57.911Z,90.54
2022-08-05T07:50:57.939Z,90.16
2022-08-05T07:51:57.970Z,90.44
2022-08-05T07:52:57.990Z,90.78
2022-08-05T07:53:58.029Z,91.61
2022-08-05T07:54:58.077Z,91.75
2022-08-05T07:56:06.330Z,92.43
2022-08-05T07:57:02.393Z,92.63
2022-08-05T07:58:03.032Z,92.97
2022-08-05T07:58:59.179Z,93.55
2022-08-05T07:59:58.172Z,94.32
2022-08-05T08:00:58.216Z,94.90
2022-08-05T08:01:58.302Z,95.20
2022-08-05T08:03:13.331Z,95.54
2022-08-05T08:03:58.272Z,95.73
2022-08-05T08:04:58.298Z,96.99
2022-08-05T08:05:58.322Z,97.67
2022-08-05T08:06:58.347Z,98.44
2022-08-05T08:07:59.458Z,98.83
2022-08-05T08:08:58.398Z,98.97
2022-08-05T08:09:58.429Z,98.54
2022-08-05T08:10:58.449Z,98.49
2022-08-05T08:12:00.086Z,98.68
2022-08-05T08:12:58.778Z,98.88
2022-08-05T08:14:00.878Z,98.78
2022-08-05T08:15:02.678Z,98.88
2022-08-05T08:16:49.693Z,98.30
2022-08-05T08:16:58.595Z,98.39
2022-08-05T08:17:58.625Z,98.20
2022-08-05T08:18:58.649Z,97.96
2022-08-05T08:20:43.057Z,98.20
2022-08-05T08:21:02.201Z,98.10
2022-08-05T08:21:58.722Z,98.39
2022-08-05T08:22:58.748Z,97.76
2022-08-05T08:24:02.938Z,97.08
2022-08-05T08:25:03.356Z,96.80
2022-08-05T08:26:00.216Z,97.08
2022-08-05T08:26:58.851Z,96.89
2022-08-05T08:27:58.875Z,96.99
2022-08-05T08:28:59.604Z,96.41
2022-08-05T08:30:06.088Z,96.22
2022-08-05T08:30:58.948Z,95.49
2022-08-05T08:31:58.974Z,95.20
2022-08-05T08:33:02.490Z,95.10
2022-08-05T08:33:59.025Z,94.90
2022-08-05T08:34:59.049Z,94.52
2022-08-05T08:36:29.605Z,94.71
2022-08-05T08:37:03.124Z,94.52
2022-08-05T08:37:59.126Z,94.23
2022-08-05T08:38:59.167Z,93.65
2022-08-05T08:39:59.286Z,94.42
2022-08-05T08:40:59.203Z,94.23
2022-08-05T08:42:02.078Z,94.23
2022-08-05T08:45:17.799Z,93.94
2022-08-05T08:45:21.152Z,94.13
2022-08-05T08:45:24.182Z,93.94
2022-08-05T08:45:59.340Z,94.04
2022-08-05T08:46:59.357Z,93.84
2022-08-05T08:48:12.397Z,93.84
2022-08-05T08:50:04.021Z,93.45
2022-08-05T08:50:22.627Z,93.74
2022-08-05T08:51:21.987Z,93.65
2022-08-05T08:52:05.623Z,94.04
2022-08-05T08:52:59.508Z,93.84
2022-08-05T08:53:59.532Z,93.84
2022-08-05T08:54:59.571Z,93.94
2022-08-05T08:56:03.202Z,94.52
2022-08-05T08:56:59.610Z,95.20
2022-08-05T08:57:59.639Z,97.62
2022-08-05T08:58:59.668Z,99.80
2022-08-05T08:59:59.684Z,99.99
2022-08-05T09:00:59.789Z,99.80
2022-08-05T09:02:01.184Z,99.99
2022-08-05T09:02:59.760Z,99.99
2022-08-05T09:03:59.785Z,99.89
2022-08-05T09:05:17.695Z,99.99
2022-08-05T09:06:09.005Z,99.99
2022-08-05T09:06:59.859Z,99.99
2022-08-05T09:07:59.885Z,99.99
2022-08-05T09:08:59.912Z,99.99
2022-08-05T09:09:59.935Z,99.99
2022-08-05T09:10:59.967Z,99.99
2022-08-05T09:12:04.642Z,99.80
2022-08-05T09:13:05.028Z,99.51
2022-08-05T09:14:09.381Z,98.93
2022-08-05T09:15:04.767Z,98.44
2022-08-05T09:16:00.093Z,98.54
2022-08-05T09:17:00.111Z,98.35
2022-08-05T09:18:00.137Z,98.54
2022-08-05T09:19:00.162Z,98.93
2022-08-05T09:20:02.807Z,98.54
2022-08-05T09:21:00.211Z,98.39
2022-08-05T09:22:22.687Z,98.10
2022-08-05T09:23:05.259Z,98.39
2022-08-05T09:24:02.436Z,97.03
2022-08-05T09:25:00.327Z,95.10
2022-08-05T09:26:06.093Z,95.20
2022-08-05T09:27:00.376Z,95.49
2022-08-05T09:28:04.931Z,94.85
2022-08-05T09:29:00.435Z,94.18
2022-08-05T09:30:04.647Z,94.37
2022-08-05T09:31:00.469Z,94.18
2022-08-05T09:32:41.065Z,92.05
2022-08-05T09:33:00.523Z,92.24
2022-08-05T09:34:00.559Z,91.89
2022-08-05T09:35:00.600Z,91.80
2022-08-05T09:36:02.682Z,91.71
2022-08-05T09:37:00.627Z,91.61
2022-08-05T09:38:17.089Z,91.41
2022-08-05T09:39:00.725Z,91.41
2022-08-05T09:40:00.749Z,91.41
2022-08-05T09:41:00.731Z,91.31
2022-08-05T09:42:00.758Z,91.55
2022-08-05T09:43:00.786Z,90.97
2022-08-05T09:44:00.811Z,90.88
2022-08-05T09:45:17.737Z,90.88
2022-08-05T09:46:07.887Z,90.58
2022-08-05T09:47:00.890Z,90.48
2022-08-05T09:48:00.915Z,90.58
2022-08-05T09:49:07.792Z,90.78
2022-08-05T09:50:03.320Z,90.48
2022-08-05T09:51:01.004Z,91.27
2022-08-05T09:52:01.023Z,90.88
2022-08-05T09:53:01.179Z,90.88
2022-08-05T09:54:01.083Z,91.71
2022-08-05T09:55:55.438Z,94.23
2022-08-05T09:56:11.378Z,95.29
2022-08-05T09:57:01.965Z,96.75
2022-08-05T09:58:01.178Z,97.52
2022-08-05T09:59:01.208Z,98.54
2022-08-05T10:00:04.728Z,99.51
2022-08-05T10:01:01.257Z,99.99
2022-08-05T10:02:01.286Z,99.99
2022-08-05T10:03:01.321Z,99.99
2022-08-05T10:04:01.335Z,99.99
2022-08-05T10:05:01.359Z,99.99
2022-08-05T10:06:03.672Z,99.99
2022-08-05T10:07:01.463Z,99.99
2022-08-05T10:08:34.918Z,99.99
2022-08-05T10:09:01.461Z,99.99
2022-08-05T10:10:15.222Z,99.99
2022-08-05T10:11:01.514Z,99.99
2022-08-05T10:12:04.827Z,99.99
2022-08-05T10:13:01.561Z,99.99
2022-08-05T10:14:01.592Z,99.99
2022-08-05T10:15:01.611Z,99.99
2022-08-05T10:16:01.640Z,99.99
2022-08-05T10:17:01.662Z,99.99
2022-08-05T10:18:01.689Z,99.99
2022-08-05T10:19:01.714Z,99.99
2022-08-05T10:20:04.470Z,99.99
2022-08-05T10:21:08.500Z,99.99
2022-08-05T10:22:01.790Z,99.99
2022-08-05T10:23:01.814Z,99.99
2022-08-05T10:24:05.105Z,99.99
2022-08-05T10:25:01.867Z,99.99
2022-08-05T10:26:01.895Z,99.99
2022-08-05T10:27:01.961Z,99.99
2022-08-05T10:28:13.857Z,99.99
2022-08-05T10:29:02.022Z,99.99
2022-08-05T10:30:41.365Z,99.99
2022-08-05T10:32:48.444Z,99.99
2022-08-05T10:32:51.904Z,99.99
2022-08-05T10:33:02.965Z,99.99
2022-08-05T10:34:02.095Z,99.99
2022-08-05T10:35:02.122Z,99.99
2022-08-05T10:36:02.145Z,99.99
2022-08-05T10:37:02.170Z,99.99
2022-08-05T10:38:02.199Z,99.99
2022-08-05T10:39:05.285Z,99.99
2022-08-05T10:40:16.652Z,99.99
2022-08-05T10:41:02.349Z,99.99
2022-08-05T10:42:02.298Z,99.99
2022-08-05T10:43:02.323Z,99.99
2022-08-05T10:44:02.349Z,99.99
2022-08-05T10:45:02.374Z,99.99
2022-08-05T10:46:06.193Z,99.99
2022-08-05T10:47:02.425Z,99.99
2022-08-05T10:48:29.808Z,99.99
2022-08-05T10:49:10.175Z,99.99
2022-08-05T10:50:31.777Z,99.99
2022-08-05T10:51:03.424Z,99.99
2022-08-05T10:52:04.995Z,99.99
2022-08-05T10:53:02.573Z,99.99
2022-08-05T10:54:05.777Z,99.99
2022-08-05T10:55:02.629Z,99.99
2022-08-05T10:56:05.034Z,99.99
2022-08-05T10:57:02.676Z,99.99
2022-08-05T10:58:02.699Z,99.99
2022-08-05T10:59:06.945Z,99.99
2022-08-05T11:00:09.119Z,99.99
2022-08-05T11:01:03.270Z,99.99
2022-08-05T11:02:05.099Z,99.99
2022-08-05T11:03:23.087Z,99.99
2022-08-05T11:04:02.878Z,99.99
2022-08-05T11:05:02.878Z,99.99
2022-08-05T11:06:03.865Z,99.99
2022-08-05T11:07:02.931Z,99.99
2022-08-05T11:08:12.709Z,99.99
2022-08-05T11:09:02.984Z,99.99
2022-08-05T11:10:09.499Z,99.99
2022-08-05T11:11:06.967Z,99.99
2022-08-05T11:12:03.060Z,99.99
2022-08-05T11:13:03.087Z,99.99
2022-08-05T11:14:03.115Z,99.99
2022-08-05T11:15:19.004Z,99.99
2022-08-05T11:16:03.163Z,99.99
2022-08-05T11:17:53.233Z,99.99
2022-08-05T11:18:05.792Z,99.99
2022-08-05T11:19:03.247Z,99.99
2022-08-05T11:20:16.575Z,99.99
2022-08-05T11:21:11.204Z,98.63
2022-08-05T11:22:03.330Z,96.64
2022-08-05T11:23:08.793Z,94.70
2022-08-05T11:24:14.673Z,94.84
2022-08-05T11:26:03.396Z,94.17
2022-08-05T11:26:08.880Z,93.73
2022-08-05T11:27:03.484Z,90.17
2022-08-05T11:28:03.504Z,90.36
2022-08-05T11:29:11.665Z,88.46
2022-08-05T11:30:03.565Z,88.41
2022-08-05T11:31:06.581Z,87.48
2022-08-05T11:32:03.651Z,88.16
2022-08-05T11:33:03.658Z,86.45
2022-08-05T11:34:03.689Z,84.74
2022-08-05T11:35:03.721Z,83.02
2022-08-05T11:36:08.213Z,82.48
2022-08-05T11:37:06.309Z,81.60
2022-08-05T11:38:28.003Z,81.21
2022-08-05T11:39:03.910Z,81.99
2022-08-05T11:40:04.608Z,82.42
2022-08-05T11:41:34.366Z,82.91
2022-08-05T11:42:04.560Z,81.74
2022-08-05T11:43:03.978Z,81.19
2022-08-05T11:44:07.559Z,79.82
2022-08-05T11:45:05.316Z,79.66
2022-08-05T11:46:14.878Z,79.71
2022-08-05T11:47:10.974Z,78.28
2022-08-05T11:48:04.139Z,77.59
2022-08-05T11:49:04.174Z,75.48
2022-08-05T11:50:04.212Z,74.24
2022-08-05T11:51:04.240Z,72.41
2022-08-05T11:52:08.673Z,71.53
2022-08-05T11:53:04.309Z,71.43
2022-08-05T11:54:04.342Z,71.08
2022-08-05T11:55:07.046Z,68.43
2022-08-05T11:56:04.413Z,68.85
2022-08-05T11:57:08.078Z,69.05
2022-08-05T11:58:10.521Z,69.44
2022-08-05T11:59:04.523Z,69.38
2022-08-05T12:00:04.556Z,69.18
2022-08-05T12:01:04.633Z,68.92
2022-08-05T12:02:04.634Z,68.63
2022-08-05T12:03:04.688Z,68.17
2022-08-05T12:04:04.689Z,65.64
2022-08-05T12:05:07.344Z,65.94
2022-08-05T12:06:06.686Z,66.96
2022-08-05T12:07:04.796Z,66.76
2022-08-05T12:08:10.109Z,65.31
2022-08-05T12:09:04.867Z,63.45
2022-08-05T12:10:06.350Z,63.97
2022-08-05T12:11:06.133Z,63.12
2022-08-05T12:12:04.974Z,64.00
2022-08-05T12:13:16.589Z,62.52
2022-08-05T12:14:05.048Z,63.15
2022-08-05T12:15:05.086Z,63.84
2022-08-05T12:16:14.104Z,63.08
2022-08-05T12:17:05.158Z,62.78
2022-08-05T12:18:10.491Z,61.96
2022-08-05T12:19:05.236Z,62.15
2022-08-05T12:20:25.958Z,60.50
2022-08-05T12:21:05.308Z,60.60
2022-08-05T12:22:05.346Z,60.43
2022-08-05T12:23:05.382Z,59.15
2022-08-05T12:24:06.938Z,58.98
2022-08-05T12:25:05.457Z,58.29
2022-08-05T12:26:05.506Z,58.61
2022-08-05T12:27:09.853Z,57.62
2022-08-05T12:28:05.576Z,56.54
2022-08-05T12:29:05.609Z,56.93
2022-08-05T12:30:05.684Z,55.94
2022-08-05T12:31:05.766Z,56.04
2022-08-05T12:32:05.722Z,55.26
2022-08-05T12:33:07.544Z,55.82
2022-08-05T12:34:05.802Z,56.38
2022-08-05T12:35:05.838Z,56.41
2022-08-05T12:36:07.021Z,56.19
2022-08-05T12:37:05.913Z,55.99
2022-08-05T12:38:05.956Z,55.79
2022-08-05T12:39:07.063Z,56.09
2022-08-05T12:40:10.393Z,56.09
2022-08-05T12:41:09.695Z,55.79
2022-08-05T12:42:06.099Z,56.38
2022-08-05T12:43:06.134Z,56.09
2022-08-05T12:44:06.170Z,55.92
2022-08-05T12:45:09.532Z,55.33
2022-08-05T12:46:06.242Z,55.52
2022-08-05T12:47:06.280Z,55.82
2022-08-05T12:48:27.798Z,54.93
2022-08-05T12:49:13.655Z,54.46
2022-08-05T12:50:07.336Z,54.27
2022-08-05T12:51:06.428Z,53.18
2022-08-05T12:52:13.876Z,53.77
2022-08-05T12:53:06.503Z,53.97
2022-08-05T12:54:14.834Z,53.87